Time;durP1;ratioP1;P1;durP2;ratioP2;P2;SDS_P1;SDS_P2;PMS_P1;PMS_P2;Temp;Humidity;BMP_temperature;BMP_pressure;BME280_temperature;BME280_humidity;BME280_pressure;Samples;Min_cycle;Max_cycle;Signal;HPM_P1;HPM_P2
2021/10/12 00:00:52;;;;;;;6.05;1.92;;;11.90;99.90;;;;;;4978268;28;20037;-37
2021/10/12 00:03:17;;;;;;;4.22;1.67;;;11.90;99.90;;;;;;4971173;28;20145;-38
2021/10/12 00:05:43;;;;;;;3.97;1.50;;;11.90;99.90;;;;;;4973513;28;20085;-38
2021/10/12 00:08:08;;;;;;;4.47;1.48;;;11.80;99.90;;;;;;4973652;28;20724;-38
2021/10/12 00:10:34;;;;;;;3.78;1.38;;;11.80;99.90;;;;;;4972663;28;20026;-38
2021/10/12 00:12:59;;;;;;;4.07;1.50;;;11.80;99.90;;;;;;4975725;28;20386;-38
2021/10/12 00:15:25;;;;;;;5.82;1.70;;;11.80;99.90;;;;;;4970084;28;20011;-37
2021/10/12 00:17:51;;;;;;;3.45;1.58;;;11.80;99.90;;;;;;4987793;28;20474;-47
2021/10/12 00:20:16;;;;;;;3.63;1.30;;;11.90;99.90;;;;;;4986242;28;20033;-37
2021/10/12 00:22:42;;;;;;;4.65;1.65;;;11.80;99.90;;;;;;4976721;28;20026;-39
2021/10/12 00:25:07;;;;;;;4.70;1.50;;;11.80;99.90;;;;;;4987230;28;20037;-37
2021/10/12 00:27:33;;;;;;;4.80;1.40;;;11.90;99.90;;;;;;4974980;28;20370;-39
2021/10/12 00:29:58;;;;;;;3.20;1.00;;;11.90;99.90;;;;;;4987786;28;20037;-38
2021/10/12 00:32:24;;;;;;;4.97;1.33;;;11.80;99.90;;;;;;4974982;28;20078;-38
2021/10/12 00:34:49;;;;;;;3.65;1.20;;;11.80;99.90;;;;;;4987468;28;20089;-39
2021/10/12 00:37:16;;;;;;;3.97;1.52;;;11.90;99.90;;;;;;4976281;28;20054;-39
2021/10/12 00:39:42;;;;;;;4.78;1.52;;;11.80;99.90;;;;;;4985495;28;20093;-39
2021/10/12 00:42:08;;;;;;;5.30;1.30;;;11.90;99.90;;;;;;4978183;28;20410;-40
2021/10/12 00:44:34;;;;;;;6.68;1.90;;;11.80;99.90;;;;;;4971158;28;20455;-40
2021/10/12 00:47:01;;;;;;;2.78;1.30;;;11.80;99.90;;;;;;4973324;28;20684;-38
2021/10/12 00:49:26;;;;;;;3.35;1.23;;;11.80;99.90;;;;;;4974091;28;20109;-37
2021/10/12 00:51:52;;;;;;;4.13;1.35;;;11.80;99.90;;;;;;4971747;28;20114;-38
2021/10/12 00:54:18;;;;;;;3.65;1.30;;;11.90;99.90;;;;;;4975585;28;20026;-37
2021/10/12 00:56:44;;;;;;;4.50;1.30;;;11.80;99.90;;;;;;4969214;28;20027;-38
2021/10/12 00:59:09;;;;;;;3.78;1.27;;;11.80;99.90;;;;;;4978773;28;20034;-38
2021/10/12 01:01:38;;;;;;;4.45;1.50;;;11.80;99.90;;;;;;4968582;28;20054;-39
2021/10/12 01:04:05;;;;;;;6.47;2.25;;;11.80;99.90;;;;;;4979200;28;20027;-38
2021/10/12 01:06:31;;;;;;;4.90;1.50;;;11.80;99.90;;;;;;4967178;28;20406;-38
2021/10/12 01:08:56;;;;;;;5.97;1.50;;;11.80;99.90;;;;;;4979021;28;20023;-38
2021/10/12 01:11:22;;;;;;;3.67;1.40;;;11.80;99.90;;;;;;4967951;28;20034;-36
2021/10/12 01:13:47;;;;;;;3.97;1.17;;;11.80;99.90;;;;;;4979443;28;20030;-39
2021/10/12 01:16:17;;;;;;;6.72;1.75;;;11.80;99.90;;;;;;4968553;28;20042;-38
2021/10/12 01:19:01;;;;;;;4.20;1.55;;;11.80;99.90;;;;;;4982588;28;20030;-38
2021/10/12 01:21:28;;;;;;;3.20;1.60;;;11.80;99.90;;;;;;4971053;28;20022;-38
2021/10/12 01:23:55;;;;;;;5.30;1.52;;;11.80;99.90;;;;;;4982425;28;20022;-39
2021/10/12 01:26:21;;;;;;;5.38;1.70;;;11.80;99.90;;;;;;4972112;28;20462;-37
2021/10/12 01:28:47;;;;;;;6.55;1.98;;;11.80;99.90;;;;;;4980233;28;20499;-38
2021/10/12 01:31:24;;;;;;;6.38;2.25;;;11.80;99.90;;;;;;4973265;28;20426;-40
2021/10/12 01:33:50;;;;;;;5.88;2.45;;;11.80;99.90;;;;;;4979509;28;20031;-42
2021/10/12 01:36:16;;;;;;;5.38;2.58;;;11.80;99.90;;;;;;4974259;28;20049;-38
2021/10/12 01:38:42;;;;;;;10.93;2.95;;;11.80;99.90;;;;;;4976320;28;20034;-37
2021/10/12 01:41:08;;;;;;;6.22;2.63;;;11.80;99.90;;;;;;4986356;28;20093;-39
2021/10/12 01:43:34;;;;;;;5.35;3.17;;;11.80;99.90;;;;;;4985456;28;20753;-36
2021/10/12 01:46:00;;;;;;;6.45;3.05;;;11.80;99.90;;;;;;4982185;28;20040;-38
2021/10/12 01:48:26;;;;;;;7.32;3.40;;;11.80;99.90;;;;;;4988149;28;20601;-38
2021/10/12 01:50:51;;;;;;;3.70;2.80;;;11.70;99.90;;;;;;4979036;28;20038;-40
2021/10/12 01:53:17;;;;;;;6.70;2.75;;;11.80;99.90;;;;;;4989479;28;20023;-38
2021/10/12 01:55:42;;;;;;;5.07;2.80;;;11.70;99.90;;;;;;4981276;28;20027;-38
2021/10/12 01:58:08;;;;;;;4.93;2.42;;;11.80;99.90;;;;;;4970878;28;20030;-38
2021/10/12 02:00:34;;;;;;;5.13;2.13;;;11.80;99.90;;;;;;4978370;28;20027;-38
2021/10/12 02:02:59;;;;;;;5.93;2.70;;;11.80;99.90;;;;;;4990339;28;20034;-38
2021/10/12 02:05:25;;;;;;;5.65;2.63;;;11.70;99.90;;;;;;4976893;28;20046;-39
2021/10/12 02:07:50;;;;;;;4.97;2.35;;;11.70;99.90;;;;;;4990021;28;20355;-38
2021/10/12 02:10:16;;;;;;;8.32;2.60;;;11.70;99.90;;;;;;4979659;28;20059;-37
2021/10/12 02:12:42;;;;;;;4.93;2.63;;;11.70;99.90;;;;;;4987337;28;20018;-37
2021/10/12 02:15:08;;;;;;;6.80;2.38;;;11.70;99.90;;;;;;4982430;28;20073;-37
2021/10/12 02:17:33;;;;;;;7.10;2.47;;;11.70;99.90;;;;;;4985122;28;20018;-38
2021/10/12 02:19:59;;;;;;;4.20;2.05;;;11.70;99.90;;;;;;4983789;28;20098;-38
2021/10/12 02:22:26;;;;;;;7.45;2.60;;;11.70;99.90;;;;;;4982880;28;20018;-38
2021/10/12 02:24:51;;;;;;;9.57;2.95;;;11.70;99.90;;;;;;4986664;28;20410;-38
2021/10/12 02:27:17;;;;;;;4.00;2.30;;;11.70;99.90;;;;;;4979629;28;20069;-37
2021/10/12 02:29:42;;;;;;;4.70;2.33;;;11.60;99.90;;;;;;4987891;28;20049;-38
2021/10/12 02:32:08;;;;;;;6.60;2.10;;;11.60;99.90;;;;;;4977956;28;20037;-38
2021/10/12 02:34:33;;;;;;;6.60;2.40;;;11.60;99.90;;;;;;4987510;28;20742;-37
2021/10/12 02:36:59;;;;;;;5.63;2.30;;;11.60;99.90;;;;;;4981612;28;20074;-39
2021/10/12 02:39:25;;;;;;;4.78;2.20;;;11.60;99.90;;;;;;4969110;28;20050;-37
2021/10/12 02:41:50;;;;;;;3.38;1.60;;;11.70;99.90;;;;;;4982106;28;20023;-38
2021/10/12 02:44:16;;;;;;;5.30;1.67;;;11.60;99.90;;;;;;4970246;28;20058;-37
2021/10/12 02:46:41;;;;;;;3.17;1.67;;;11.60;99.90;;;;;;4980477;28;20044;-38
2021/10/12 02:49:07;;;;;;;5.57;1.90;;;11.60;99.90;;;;;;4970053;28;20529;-38
2021/10/12 02:51:32;;;;;;;4.25;1.58;;;11.60;99.90;;;;;;4978898;28;20031;-37
2021/10/12 02:53:58;;;;;;;4.18;1.42;;;11.60;99.90;;;;;;4971634;28;20122;-38
2021/10/12 02:56:23;;;;;;;4.97;1.83;;;11.60;99.90;;;;;;4976492;28;20061;-38
2021/10/12 02:58:49;;;;;;;6.38;1.65;;;11.50;99.90;;;;;;4974713;28;20141;-36
2021/10/12 03:01:14;;;;;;;5.35;1.65;;;11.50;99.90;;;;;;4973244;28;20034;-37
2021/10/12 03:03:40;;;;;;;5.25;1.27;;;11.50;99.90;;;;;;4977612;28;20019;-39
2021/10/12 03:06:05;;;;;;;3.30;1.60;;;11.50;99.90;;;;;;4970891;28;20058;-37
2021/10/12 03:08:31;;;;;;;4.93;1.60;;;11.50;99.90;;;;;;4978214;28;20027;-38
2021/10/12 03:10:56;;;;;;;5.15;1.63;;;11.40;99.90;;;;;;4971240;28;20030;-37
2021/10/12 03:13:22;;;;;;;6.72;2.03;;;11.40;99.90;;;;;;4980229;28;20121;-37
2021/10/12 03:15:47;;;;;;;4.78;1.55;;;11.50;99.90;;;;;;4968494;28;20026;-37
2021/10/12 03:18:13;;;;;;;5.25;1.25;;;11.50;99.90;;;;;;4981757;28;20034;-38
2021/10/12 03:20:38;;;;;;;5.13;2.28;;;11.50;99.90;;;;;;4968628;28;20030;-38
2021/10/12 03:23:04;;;;;;;3.60;1.45;;;11.50;99.90;;;;;;4980626;28;20029;-37
2021/10/12 03:25:30;;;;;;;4.70;1.20;;;11.50;99.90;;;;;;4969174;28;20038;-38
2021/10/12 03:27:55;;;;;;;4.30;1.17;;;11.50;99.90;;;;;;4979991;28;20018;-38
2021/10/12 03:30:21;;;;;;;4.05;1.23;;;11.40;99.90;;;;;;4969580;28;20122;-37
2021/10/12 03:32:46;;;;;;;4.15;0.95;;;11.40;99.90;;;;;;4977107;28;20442;-37
2021/10/12 03:35:15;;;;;;;3.50;1.10;;;11.40;99.90;;;;;;4973134;28;20122;-39
2021/10/12 03:37:41;;;;;;;4.85;1.13;;;11.40;99.90;;;;;;4973722;28;20106;-38
2021/10/12 03:40:07;;;;;;;4.90;1.10;;;11.40;99.90;;;;;;4974211;28;20113;-37
2021/10/12 03:42:32;;;;;;;4.63;1.23;;;11.40;99.90;;;;;;4983651;28;20030;-36
2021/10/12 03:44:58;;;;;;;5.00;1.30;;;11.40;99.90;;;;;;4979560;28;20026;-38
2021/10/12 03:47:24;;;;;;;3.65;1.00;;;11.40;99.90;;;;;;4986751;28;20525;-37
2021/10/12 03:49:49;;;;;;;4.40;1.38;;;11.40;99.90;;;;;;4976543;28;20033;-38
2021/10/12 03:52:15;;;;;;;4.38;1.50;;;11.40;99.90;;;;;;4986699;28;20023;-38
2021/10/12 03:54:40;;;;;;;5.32;1.50;;;11.40;99.90;;;;;;4976927;28;20029;-37
2021/10/12 03:57:06;;;;;;;2.13;1.25;;;11.40;99.90;;;;;;4987368;28;20117;-43
2021/10/12 03:59:31;;;;;;;5.35;1.40;;;11.40;99.90;;;;;;4975268;28;20113;-37
2021/10/12 04:01:57;;;;;;;5.47;1.55;;;11.40;99.90;;;;;;4988498;28;20084;-36
2021/10/12 04:04:22;;;;;;;3.83;1.38;;;11.40;99.90;;;;;;4974757;28;20094;-38
2021/10/12 04:06:48;;;;;;;4.97;1.52;;;11.40;99.90;;;;;;4987909;28;20354;-39
2021/10/12 04:09:13;;;;;;;5.88;1.60;;;11.40;99.90;;;;;;4983552;28;20030;-37
2021/10/12 04:11:39;;;;;;;3.90;1.38;;;11.40;99.90;;;;;;4969777;28;20077;-37
2021/10/12 04:14:04;;;;;;;2.78;1.35;;;11.40;99.90;;;;;;4975981;28;20109;-38
2021/10/12 04:16:30;;;;;;;2.63;1.23;;;11.40;99.90;;;;;;4972806;28;20070;-38
2021/10/12 04:18:56;;;;;;;5.20;1.75;;;11.40;99.90;;;;;;4973063;28;20045;-38
2021/10/12 04:21:22;;;;;;;4.18;1.58;;;11.40;99.90;;;;;;4974916;28;20490;-36
2021/10/12 04:23:47;;;;;;;3.03;1.63;;;11.40;99.90;;;;;;4971046;28;20110;-38
2021/10/12 04:26:16;;;;;;;4.70;1.25;;;11.40;99.90;;;;;;4977389;28;20034;-39
2021/10/12 04:28:41;;;;;;;4.18;1.40;;;11.40;99.90;;;;;;4968985;28;20089;-38
2021/10/12 04:31:07;;;;;;;7.00;1.90;;;11.40;99.90;;;;;;4979635;28;20423;-37
2021/10/12 04:33:34;;;;;;;4.40;1.70;;;11.30;99.90;;;;;;4968796;28;20057;-39
2021/10/12 04:35:59;;;;;;;4.53;1.60;;;11.40;99.90;;;;;;4979148;28;20054;-38
2021/10/12 04:38:25;;;;;;;5.30;1.60;;;11.40;99.90;;;;;;4968616;28;20479;-37
2021/10/12 04:40:50;;;;;;;4.68;1.50;;;11.40;99.90;;;;;;4977512;28;20015;-41
2021/10/12 04:43:16;;;;;;;4.15;1.63;;;11.40;99.90;;;;;;4968168;28;20035;-39
2021/10/12 04:45:42;;;;;;;3.67;1.50;;;11.40;99.90;;;;;;4979678;28;20066;-37
2021/10/12 04:48:08;;;;;;;6.47;1.63;;;11.40;99.90;;;;;;4968048;28;20061;-38
2021/10/12 04:50:33;;;;;;;3.42;1.50;;;11.40;99.90;;;;;;4972794;28;20038;-38
2021/10/12 04:53:00;;;;;;;3.72;1.30;;;11.50;99.90;;;;;;4989108;28;20033;-39
2021/10/12 04:55:25;;;;;;;4.03;1.40;;;11.50;99.90;;;;;;4984246;28;20031;-40
2021/10/12 04:57:51;;;;;;;3.88;1.63;;;11.50;99.90;;;;;;4986675;28;20049;-38
2021/10/12 05:00:16;;;;;;;3.10;1.25;;;11.40;99.90;;;;;;4985982;28;20050;-38
2021/10/12 05:02:42;;;;;;;2.92;1.30;;;11.40;99.90;;;;;;4984151;28;20509;-39
2021/10/12 05:05:07;;;;;;;2.72;1.38;;;11.50;99.90;;;;;;4985954;28;20502;-39
2021/10/12 05:07:33;;;;;;;3.88;1.30;;;11.50;99.90;;;;;;4980905;28;20493;-37
2021/10/12 05:09:58;;;;;;;5.40;1.95;;;11.50;99.90;;;;;;4975351;28;20014;-37
2021/10/12 05:12:24;;;;;;;3.47;1.50;;;11.50;99.90;;;;;;4980173;28;20418;-37
2021/10/12 05:14:49;;;;;;;2.83;1.42;;;11.50;99.90;;;;;;4989747;28;20031;-39
2021/10/12 05:17:22;;;;;;;3.40;1.38;;;11.50;99.90;;;;;;4979762;28;20030;-37
2021/10/12 05:19:48;;;;;;;7.90;1.63;;;11.50;99.90;;;;;;4990806;28;20018;-37
2021/10/12 05:22:14;;;;;;;2.72;1.42;;;11.50;99.90;;;;;;4977983;28;20023;-38
2021/10/12 05:24:39;;;;;;;6.25;2.03;;;11.50;99.90;;;;;;4990948;28;20030;-38
2021/10/12 05:27:05;;;;;;;4.50;1.58;;;11.50;99.90;;;;;;4978736;28;20039;-38
2021/10/12 05:29:31;;;;;;;3.88;1.42;;;11.50;99.90;;;;;;4989803;28;20803;-38
2021/10/12 05:31:57;;;;;;;5.03;1.60;;;11.50;99.90;;;;;;4980860;28;20033;-37
2021/10/12 05:34:23;;;;;;;2.47;1.30;;;11.50;99.90;;;;;;4987998;28;20018;-38
2021/10/12 05:36:48;;;;;;;5.47;1.80;;;11.50;99.90;;;;;;4982794;28;20023;-38
2021/10/12 05:39:14;;;;;;;5.57;1.70;;;11.50;99.90;;;;;;4984749;28;20030;-38
2021/10/12 05:41:39;;;;;;;4.70;1.88;;;11.50;99.90;;;;;;4977071;28;20034;-38
2021/10/12 05:44:05;;;;;;;1.98;1.30;;;11.50;99.90;;;;;;4975568;28;20394;-38
2021/10/12 05:46:30;;;;;;;4.13;1.60;;;11.60;99.90;;;;;;4971921;28;20118;-40
2021/10/12 05:48:57;;;;;;;3.92;1.90;;;11.60;99.90;;;;;;4987117;28;20053;-38
2021/10/12 05:51:25;;;;;;;5.75;2.35;;;11.60;99.90;;;;;;4987400;28;20170;-37
2021/10/12 05:53:52;;;;;;;3.80;2.00;;;11.60;99.90;;;;;;4978542;28;20386;-37
2021/10/12 05:56:21;;;;;;;10.27;2.47;;;11.60;99.90;;;;;;4987717;28;20081;-39
2021/10/12 05:58:50;;;;;;;5.78;2.40;;;11.60;99.90;;;;;;4978240;28;20030;-38
2021/10/12 06:01:21;;;;;;;7.65;2.25;;;11.50;99.90;;;;;;4989120;28;20378;-37
2021/10/12 06:03:47;;;;;;;4.70;2.40;;;11.60;99.90;;;;;;4976280;28;20027;-38
2021/10/12 06:06:13;;;;;;;4.63;2.30;;;11.60;99.90;;;;;;4990379;28;20183;-38
2021/10/12 06:08:40;;;;;;;5.20;3.10;;;11.60;99.90;;;;;;4976204;28;20027;-40
2021/10/12 06:11:08;;;;;;;4.53;2.90;;;11.70;99.90;;;;;;4988569;28;20501;-39
2021/10/12 06:13:35;;;;;;;6.10;3.65;;;11.70;99.90;;;;;;4984167;28;20193;-38
2021/10/12 06:16:00;;;;;;;5.55;2.88;;;11.70;99.90;;;;;;4969875;28;20078;-38
2021/10/12 06:18:27;;;;;;;6.90;3.30;;;11.70;99.90;;;;;;4977745;28;20600;-37
2021/10/12 06:20:53;;;;;;;7.18;3.83;;;11.70;99.90;;;;;;4972251;28;20034;-39
2021/10/12 06:23:19;;;;;;;6.45;3.90;;;11.80;99.90;;;;;;4976660;28;20034;-38
2021/10/12 06:25:46;;;;;;;9.40;4.75;;;11.80;99.90;;;;;;4973659;28;20050;-38
2021/10/12 06:28:14;;;;;;;8.32;4.80;;;11.80;99.90;;;;;;4974629;28;20068;-38
2021/10/12 06:30:40;;;;;;;8.00;4.50;;;11.80;99.90;;;;;;4975501;28;20046;-38
2021/10/12 06:33:06;;;;;;;7.53;4.90;;;11.80;99.90;;;;;;4973206;28;20118;-38
2021/10/12 06:35:31;;;;;;;10.45;5.40;;;11.80;99.90;;;;;;4969380;28;20479;-38
2021/10/12 06:38:02;;;;;;;8.50;4.70;;;11.80;99.90;;;;;;4972014;28;20596;-39
2021/10/12 06:40:28;;;;;;;7.35;4.80;;;11.90;99.90;;;;;;4980483;28;20031;-37
2021/10/12 06:42:54;;;;;;;6.20;4.68;;;11.90;99.90;;;;;;4988038;28;20045;-38
2021/10/12 06:45:20;;;;;;;5.80;4.05;;;11.90;99.90;;;;;;4978020;28;20092;-38
2021/10/12 06:47:47;;;;;;;8.02;5.00;;;11.90;99.90;;;;;;4989634;28;20034;-38
2021/10/12 06:50:14;;;;;;;8.38;5.45;;;11.90;99.90;;;;;;4976679;28;20050;-38
2021/10/12 06:52:40;;;;;;;7.18;5.32;;;11.90;99.90;;;;;;4988348;28;20141;-37
2021/10/12 06:55:07;;;;;;;7.82;4.78;;;12.00;99.90;;;;;;4977454;28;20501;-39
2021/10/12 06:57:33;;;;;;;7.07;4.57;;;12.00;99.90;;;;;;4988813;28;20105;-38
2021/10/12 06:59:59;;;;;;;10.50;4.95;;;12.00;99.90;;;;;;4977132;28;20110;-39
2021/10/12 07:02:24;;;;;;;7.78;5.00;;;12.00;99.90;;;;;;4984987;28;20126;-39
2021/10/12 07:04:50;;;;;;;5.30;4.05;;;12.10;99.90;;;;;;4977681;28;20628;-38
2021/10/12 07:07:15;;;;;;;6.30;4.13;;;12.10;99.90;;;;;;4984929;28;20042;-38
2021/10/12 07:09:40;;;;;;;7.70;4.50;;;12.20;99.90;;;;;;4981313;28;20027;-37
2021/10/12 07:12:06;;;;;;;6.63;4.15;;;12.20;99.90;;;;;;4982792;28;20072;-38
2021/10/12 07:14:32;;;;;;;7.15;4.38;;;12.20;99.90;;;;;;4984237;28;20077;-40
2021/10/12 07:16:57;;;;;;;7.25;4.38;;;12.30;99.90;;;;;;4980107;28;20480;-38
2021/10/12 07:19:26;;;;;;;5.53;4.18;;;12.30;99.90;;;;;;4987384;28;20010;-37
2021/10/12 07:21:53;;;;;;;4.68;3.10;;;12.30;99.90;;;;;;4977013;28;20026;-39
2021/10/12 07:24:18;;;;;;;6.22;4.40;;;12.40;99.90;;;;;;4987518;28;20055;-38
2021/10/12 07:26:44;;;;;;;6.40;4.30;;;12.40;99.90;;;;;;4977237;28;20933;-38
2021/10/12 07:29:10;;;;;;;7.70;4.25;;;12.40;99.90;;;;;;4987612;28;20022;-38
2021/10/12 07:31:36;;;;;;;8.98;4.95;;;12.40;99.90;;;;;;4975390;28;20022;-38
2021/10/12 07:34:01;;;;;;;9.60;4.80;;;12.40;99.90;;;;;;4988665;28;20072;-38
2021/10/12 07:36:27;;;;;;;5.75;4.07;;;12.40;99.90;;;;;;4981885;28;20141;-39
2021/10/12 07:38:52;;;;;;;6.88;4.07;;;12.30;99.90;;;;;;4969403;28;20022;-38
2021/10/12 07:41:19;;;;;;;6.63;4.30;;;12.40;99.90;;;;;;4972173;28;20146;-39
2021/10/12 07:43:44;;;;;;;6.25;4.43;;;12.40;99.90;;;;;;4967557;28;20019;-41
2021/10/12 07:46:10;;;;;;;6.88;3.95;;;12.40;99.90;;;;;;4976403;28;20030;-40
2021/10/12 07:48:35;;;;;;;8.25;4.25;;;12.50;99.90;;;;;;4972972;28;20019;-40
2021/10/12 07:51:01;;;;;;;7.13;4.20;;;12.50;99.90;;;;;;4973710;28;20134;-40
2021/10/12 07:53:28;;;;;;;4.63;3.70;;;12.50;99.90;;;;;;4974263;28;20472;-40
2021/10/12 07:55:57;;;;;;;6.57;3.72;;;12.50;99.90;;;;;;4972014;28;20089;-39
2021/10/12 07:58:23;;;;;;;5.75;3.40;;;12.60;99.90;;;;;;4979010;28;20748;-37
2021/10/12 08:00:48;;;;;;;4.68;3.08;;;12.60;99.90;;;;;;4981520;28;20497;-38
2021/10/12 08:03:17;;;;;;;6.05;3.42;;;12.60;99.90;;;;;;4978950;28;20041;-38
2021/10/12 08:05:43;;;;;;;5.70;3.60;;;12.60;99.90;;;;;;4969263;28;20116;-39
2021/10/12 08:08:09;;;;;;;6.35;3.92;;;12.60;99.90;;;;;;4979159;28;20538;-39
2021/10/12 08:10:36;;;;;;;6.00;3.78;;;12.60;99.90;;;;;;4967083;28;20590;-38
2021/10/12 08:13:05;;;;;;;5.47;3.42;;;12.60;99.90;;;;;;4981201;28;20077;-39
2021/10/12 08:15:31;;;;;;;7.25;4.22;;;12.70;99.90;;;;;;4968188;28;20126;-39
2021/10/12 08:17:57;;;;;;;6.55;3.83;;;12.70;99.90;;;;;;4980189;28;20022;-38
2021/10/12 08:20:22;;;;;;;3.75;3.00;;;12.80;99.90;;;;;;4968585;28;20026;-38
2021/10/12 08:22:48;;;;;;;3.90;2.97;;;12.80;99.90;;;;;;4978789;28;20019;-37
2021/10/12 08:25:14;;;;;;;5.53;3.47;;;12.90;99.90;;;;;;4968459;28;20062;-38
2021/10/12 08:27:40;;;;;;;4.85;3.75;;;12.90;99.90;;;;;;4969642;28;20770;-40
2021/10/12 08:30:08;;;;;;;4.28;2.60;;;12.90;99.90;;;;;;4984468;28;20375;-38
2021/10/12 08:32:34;;;;;;;4.25;3.42;;;12.90;99.90;;;;;;4979885;28;20033;-37
2021/10/12 08:35:00;;;;;;;8.07;3.38;;;12.90;99.90;;;;;;4968905;28;20030;-39
2021/10/12 08:37:25;;;;;;;5.07;2.83;;;12.80;99.90;;;;;;4971874;28;20474;-38
2021/10/12 08:39:51;;;;;;;5.32;2.72;;;12.90;99.90;;;;;;4975623;28;20053;-39
2021/10/12 08:42:25;;;;;;;4.35;2.70;;;12.80;99.90;;;;;;4980812;28;20018;-39
2021/10/12 08:44:56;;;;;;;5.80;3.17;;;12.80;99.90;;;;;;4978239;28;20033;-39
2021/10/12 08:47:29;;;;;;;7.43;3.30;;;12.70;99.90;;;;;;4985561;28;20085;-39
2021/10/12 08:49:56;;;;;;;4.47;3.33;;;12.60;99.90;;;;;;4968773;28;20110;-38
2021/10/12 08:52:22;;;;;;;5.15;3.42;;;12.60;99.90;;;;;;4968211;28;20429;-38
2021/10/12 08:54:50;;;;;;;4.28;2.90;;;12.60;99.90;;;;;;4978508;28;20050;-39
2021/10/12 08:57:38;;;;;;;3.63;2.50;;;12.50;99.90;;;;;;4969308;28;20043;-37
2021/10/12 09:00:09;;;;;;;4.63;3.40;;;12.50;99.90;;;;;;4978506;28;20081;-39
2021/10/12 09:02:56;;;;;;;3.85;3.03;;;12.50;99.90;;;;;;4976787;28;20070;-40
2021/10/12 09:05:25;;;;;;;5.15;3.42;;;12.50;99.90;;;;;;4965903;28;20051;-38
2021/10/12 09:07:51;;;;;;;4.45;3.05;;;12.60;99.90;;;;;;4985782;28;20061;-40
2021/10/12 09:10:23;;;;;;;4.55;3.00;;;12.60;99.90;;;;;;4976096;28;20060;-39
2021/10/12 09:12:49;;;;;;;3.35;2.70;;;12.70;99.90;;;;;;4985989;28;20030;-38
2021/10/12 09:15:15;;;;;;;4.68;3.20;;;12.70;99.90;;;;;;4976034;28;20038;-38
2021/10/12 09:17:43;;;;;;;5.53;3.28;;;12.70;99.90;;;;;;4987462;28;20428;-38
2021/10/12 09:20:11;;;;;;;9.02;3.28;;;12.70;99.90;;;;;;4974392;28;20027;-37
2021/10/12 09:23:00;;;;;;;6.18;3.08;;;12.70;99.90;;;;;;4986294;28;20018;-39
2021/10/12 09:25:35;;;;;;;5.47;4.22;;;12.70;99.90;;;;;;4974073;28;20034;-39
2021/10/12 09:28:01;;;;;;;5.80;3.53;;;12.80;99.90;;;;;;4986944;28;20104;-39
2021/10/12 09:30:28;;;;;;;4.28;2.45;;;12.80;99.90;;;;;;4974433;28;20034;-39
2021/10/12 09:33:01;;;;;;;4.88;3.53;;;13.00;99.90;;;;;;4987177;28;20025;-37
2021/10/12 09:35:31;;;;;;;3.92;3.47;;;13.00;99.90;;;;;;4973391;28;20030;-37
2021/10/12 09:38:08;;;;;;;4.03;3.00;;;13.10;99.90;;;;;;4989349;28;20022;-37
2021/10/12 09:40:39;;;;;;;6.63;3.70;;;13.20;99.90;;;;;;4985065;28;20050;-41
2021/10/12 09:43:05;;;;;;;4.55;3.83;;;13.20;99.90;;;;;;4970601;28;20122;-39
2021/10/12 09:45:34;;;;;;;4.97;3.42;;;13.30;99.90;;;;;;4981284;28;20019;-41
2021/10/12 09:48:00;;;;;;;5.25;3.25;;;13.30;99.90;;;;;;4971610;28;20121;-39
2021/10/12 09:50:34;;;;;;;4.65;3.70;;;13.40;99.90;;;;;;4977959;28;20157;-38
2021/10/12 09:53:00;;;;;;;3.20;2.83;;;13.40;99.90;;;;;;4973265;28;20026;-38
2021/10/12 09:55:38;;;;;;;6.70;3.15;;;13.40;99.90;;;;;;4977372;28;20022;-39
2021/10/12 09:58:04;;;;;;;4.18;2.72;;;13.30;99.90;;;;;;4973260;28;20075;-43
2021/10/12 10:00:30;;;;;;;4.03;2.88;;;13.20;99.90;;;;;;4974410;28;20061;-38
2021/10/12 10:02:57;;;;;;;4.15;2.90;;;13.20;99.90;;;;;;4983816;28;20030;-38
2021/10/12 10:05:24;;;;;;;4.70;2.35;;;13.30;99.90;;;;;;4985345;28;20125;-39
2021/10/12 10:07:52;;;;;;;2.83;2.08;;;13.40;99.90;;;;;;4981945;28;20034;-38
2021/10/12 10:10:18;;;;;;;4.28;2.60;;;13.50;99.90;;;;;;4987755;28;20014;-37
2021/10/12 10:12:45;;;;;;;4.45;2.40;;;13.60;99.90;;;;;;4979321;28;20371;-38
2021/10/12 10:15:11;;;;;;;3.47;2.08;;;13.70;99.90;;;;;;4988402;28;20601;-38
2021/10/12 10:17:37;;;;;;;4.55;2.10;;;13.80;99.90;;;;;;4977657;28;20030;-41
2021/10/12 10:20:07;;;;;;;2.40;1.63;;;13.90;99.90;;;;;;4989111;28;20359;-38
2021/10/12 10:25:38;;;;;;;3.13;1.65;;;14.20;99.90;;;;;;4975125;28;20470;-39
2021/10/12 10:28:19;;;;;;;2.13;1.35;;;14.30;99.90;;;;;;4980913;28;20371;-39
2021/10/12 10:30:50;;;;;;;3.40;1.63;;;14.40;99.90;;;;;;4970499;28;20037;-38
2021/10/12 10:33:32;;;;;;;4.25;1.33;;;14.50;99.90;;;;;;4981718;28;20027;-37
2021/10/12 10:35:59;;;;;;;;;;;14.40;99.90;;;;;;4986351;28;20030;-38
2021/10/12 10:38:30;;;;;;;3.55;1.33;;;14.50;99.90;;;;;;4980140;28;19910;-38
2021/10/12 10:41:04;;;;;;;4.22;1.17;;;14.40;99.90;;;;;;4971201;28;20035;-38
2021/10/12 10:43:48;;;;;;;2.55;1.10;;;14.30;99.90;;;;;;4980322;28;20026;-38
2021/10/12 10:46:32;;;;;;;1.25;1.10;;;14.20;99.90;;;;;;4970914;28;20084;-39
2021/10/12 10:49:09;;;;;;;2.20;1.23;;;14.00;99.90;;;;;;4977907;28;20031;-38
2021/10/12 10:51:56;;;;;;;1.95;1.10;;;13.90;99.90;;;;;;4972439;28;20433;-38
2021/10/12 10:54:43;;;;;;;1.73;1.23;;;13.70;99.90;;;;;;4981456;28;20019;-39
2021/10/12 10:57:18;;;;;;;3.15;1.20;;;13.70;99.90;;;;;;4984487;28;20034;-38
2021/10/12 10:59:45;;;;;;;3.70;1.30;;;13.80;99.90;;;;;;4982118;28;20022;-37
2021/10/12 11:02:25;;;;;;;1.98;1.05;;;13.80;99.90;;;;;;4985762;28;20030;-38
2021/10/12 11:04:52;;;;;;;1.40;0.95;;;13.90;99.90;;;;;;4981946;28;20053;-37
2021/10/12 11:07:18;;;;;;;1.73;0.90;;;13.90;99.90;;;;;;4985347;28;20034;-37
2021/10/12 11:09:44;;;;;;;1.23;1.00;;;13.90;99.90;;;;;;4979610;28;20034;-38
2021/10/12 11:12:18;;;;;;;1.40;0.93;;;13.90;99.90;;;;;;4987773;28;20022;-38
2021/10/12 11:14:44;;;;;;;2.38;0.93;;;13.90;99.90;;;;;;4977013;28;20113;-38
2021/10/12 11:17:10;;;;;;;2.05;0.80;;;13.90;99.90;;;;;;4987911;28;20022;-38
2021/10/12 11:20:03;;;;;;;2.08;0.85;;;14.00;99.90;;;;;;4975457;28;20031;-39
2021/10/12 11:22:29;;;;;;;2.28;0.70;;;14.10;99.90;;;;;;4967838;28;20093;-37
2021/10/12 11:24:57;;;;;;;2.03;0.75;;;14.20;99.90;;;;;;4980006;28;20034;-39
2021/10/12 11:27:23;;;;;;;1.35;0.60;;;14.20;99.90;;;;;;4969804;28;20039;-39
2021/10/12 11:30:05;;;;;;;4.00;1.00;;;14.20;99.90;;;;;;4979774;28;20030;-38
2021/10/12 11:32:30;;;;;;;1.20;0.52;;;14.40;99.90;;;;;;4981372;28;20026;-39
2021/10/12 11:35:04;;;;;;;1.10;0.65;;;14.50;99.90;;;;;;4977272;28;20015;-37
2021/10/12 11:37:29;;;;;;;1.70;0.60;;;14.60;99.90;;;;;;4987529;28;20037;-37
2021/10/12 11:40:15;;;;;;;1.45;0.60;;;14.60;99.90;;;;;;4976614;28;20026;-38
2021/10/12 11:42:42;;;;;;;1.15;0.70;;;14.80;99.90;;;;;;4972643;28;20027;-39
2021/10/12 11:45:07;;;;;;;1.85;0.65;;;14.80;99.90;;;;;;4980654;28;20132;-42
2021/10/12 11:47:33;;;;;;;0.75;0.43;;;14.90;99.90;;;;;;4968657;28;20134;-39
2021/10/12 11:50:10;;;;;;;3.85;0.60;;;14.90;99.90;;;;;;4980229;28;20092;-39
2021/10/12 11:52:35;;;;;;;1.60;0.50;;;15.00;99.90;;;;;;4968739;28;20126;-39
2021/10/12 11:55:04;;;;;;;0.82;0.60;;;15.00;99.90;;;;;;4970043;28;20125;-38
2021/10/12 11:57:30;;;;;;;1.20;0.45;;;14.90;99.90;;;;;;4987599;28;20029;-38
2021/10/12 11:59:56;;;;;;;1.02;0.30;;;14.90;99.90;;;;;;4977256;28;20454;-39
2021/10/12 12:02:21;;;;;;;2.80;0.50;;;14.80;99.90;;;;;;4985338;28;20023;-37
2021/10/12 12:04:48;;;;;;;0.40;0.30;;;14.80;99.90;;;;;;4972970;28;20057;-40
2021/10/12 12:07:14;;;;;;;1.20;0.30;;;14.70;99.90;;;;;;4983844;28;20495;-39
2021/10/12 12:09:43;;;;;;;0.85;0.40;;;14.60;99.90;;;;;;4981459;28;20027;-38
2021/10/12 12:12:09;;;;;;;1.35;0.45;;;14.60;99.90;;;;;;4981428;28;20088;-39
2021/10/12 12:14:35;;;;;;;2.03;0.50;;;14.60;99.90;;;;;;4983814;28;20034;-38
2021/10/12 12:17:19;;;;;;;2.53;0.40;;;14.60;99.90;;;;;;4978268;28;20069;-39
2021/10/12 12:19:52;;;;;;;1.58;0.43;;;14.70;99.90;;;;;;4984239;28;20033;-37
2021/10/12 12:22:22;;;;;;;1.75;0.50;;;14.70;99.90;;;;;;4980277;28;20050;-39
2021/10/12 12:24:56;;;;;;;0.93;0.30;;;14.70;99.90;;;;;;4984338;28;20424;-41
2021/10/12 12:27:21;;;;;;;0.20;0.10;;;14.80;99.90;;;;;;4978749;28;20437;-38
2021/10/12 12:30:07;;;;;;;0.90;0.30;;;14.90;99.90;;;;;;4986328;28;20030;-40
2021/10/12 12:32:33;;;;;;;1.65;0.40;;;15.00;99.90;;;;;;4978704;28;20033;-39
2021/10/12 12:35:07;;;;;;;1.23;0.40;;;15.00;99.90;;;;;;4986463;28;20022;-37
2021/10/12 12:37:32;;;;;;;1.65;0.40;;;15.00;99.90;;;;;;4977215;28;20042;-37
2021/10/12 12:39:58;;;;;;;2.53;0.30;;;15.00;99.90;;;;;;4986108;28;20026;-38
2021/10/12 12:42:38;;;;;;;0.75;0.38;;;15.10;99.90;;;;;;4982267;28;20469;-38
2021/10/12 12:45:07;;;;;;;1.95;0.50;;;15.10;99.90;;;;;;4984990;28;20026;-41
2021/10/12 12:47:33;;;;;;;1.17;0.30;;;15.00;99.90;;;;;;4975286;28;20113;-39
2021/10/12 12:50:12;;;;;;;4.28;0.40;;;15.00;99.90;;;;;;4987815;28;20470;-38
2021/10/12 12:52:38;;;;;;;2.47;0.63;;;14.90;99.90;;;;;;4978046;28;20058;-40